Time;durP1;ratioP1;P1;durP2;ratioP2;P2;SDS_P1;SDS_P2;PMS_P1;PMS_P2;Temp;Humidity;BMP_temperature;BMP_pressure;BME280_temperature;BME280_humidity;BME280_pressure;Samples;Min_cycle;Max_cycle;Signal;HPM_P1;HPM_P2
2021/05/17 00:02:54;;;;;;;2.25;1.42;;;11.40;92.10;;;;;;5015711;28;20114;-82
2021/05/17 00:08:45;;;;;;;2.45;1.20;;;11.50;92.30;;;;;;5015576;28;20060;-84
2021/05/17 00:18:37;;;;;;;1.42;1.33;;;11.80;92.40;;;;;;5015574;28;20141;-84
2021/05/17 00:24:27;;;;;;;1.63;1.30;;;11.90;92.50;;;;;;5015412;28;20045;-84
2021/05/17 00:30:15;;;;;;;1.00;0.95;;;11.90;92.40;;;;;;5015148;28;20021;-84
2021/05/17 00:36:05;;;;;;;3.10;1.20;;;12.00;92.50;;;;;;5015338;28;20072;-84
2021/05/17 00:41:54;;;;;;;1.90;1.38;;;12.00;92.40;;;;;;5015215;28;20040;-84
2021/05/17 00:47:48;;;;;;;1.90;1.40;;;12.00;92.40;;;;;;5014854;28;20029;-84
2021/05/17 00:53:37;;;;;;;1.83;1.13;;;12.00;92.50;;;;;;5014969;28;20441;-84
2021/05/17 00:59:26;;;;;;;1.80;1.10;;;12.10;92.50;;;;;;5014709;28;20052;-84
2021/05/17 01:05:15;;;;;;;2.20;1.10;;;12.10;92.40;;;;;;5014777;28;20076;-84
2021/05/17 01:11:05;;;;;;;1.33;1.20;;;12.10;92.50;;;;;;5014479;28;20040;-84
2021/05/17 01:20:58;;;;;;;1.00;1.00;;;12.20;92.60;;;;;;5014644;28;20057;-84
2021/05/17 01:26:47;;;;;;;2.75;1.27;;;12.20;92.50;;;;;;5014224;28;20032;-83
2021/05/17 01:32:35;;;;;;;1.00;1.00;;;12.20;92.50;;;;;;5014192;28;20032;-83
2021/05/17 01:38:26;;;;;;;1.58;1.27;;;12.20;92.50;;;;;;5013936;28;20029;-83
2021/05/17 01:44:19;;;;;;;1.55;1.30;;;12.20;92.60;;;;;;5013932;28;20076;-83
2021/05/17 01:50:10;;;;;;;1.20;1.10;;;12.20;92.60;;;;;;5013935;28;20032;-84
2021/05/17 01:55:58;;;;;;;1.15;1.13;;;12.20;92.50;;;;;;5014138;28;20470;-84
2021/05/17 02:01:48;;;;;;;1.10;1.10;;;12.10;92.30;;;;;;5015668;28;20084;-84
2021/05/17 02:07:37;;;;;;;2.20;1.17;;;11.90;92.20;;;;;;5013700;28;20505;-84
2021/05/17 02:13:26;;;;;;;1.35;1.15;;;11.80;92.30;;;;;;5013853;28;20037;-84
2021/05/17 02:23:17;;;;;;;2.22;1.10;;;12.00;92.80;;;;;;5013910;28;20061;-84
2021/05/17 02:29:07;;;;;;;2.90;1.50;;;12.10;92.90;;;;;;5013554;28;20083;-84
2021/05/17 02:34:56;;;;;;;1.58;1.20;;;12.10;92.80;;;;;;5013465;28;20430;-84
2021/05/17 02:40:47;;;;;;;1.42;1.27;;;12.10;92.50;;;;;;5013428;28;20118;-83
2021/05/17 02:46:36;;;;;;;4.00;1.70;;;12.00;92.70;;;;;;5013460;28;20080;-84
2021/05/17 02:52:31;;;;;;;3.88;1.52;;;12.00;92.70;;;;;;5017114;28;20032;-84
2021/05/17 02:58:22;;;;;;;2.58;1.33;;;12.10;92.90;;;;;;5016871;28;20133;-84
2021/05/17 03:04:13;;;;;;;6.68;1.90;;;12.10;92.70;;;;;;5016823;28;20126;-84
2021/05/17 03:10:03;;;;;;;2.45;1.42;;;12.10;92.70;;;;;;5017015;28;20049;-84
2021/05/17 03:15:53;;;;;;;2.10;1.60;;;12.10;92.80;;;;;;5016593;28;20041;-84
2021/05/17 03:25:50;;;;;;;2.63;1.58;;;12.00;92.70;;;;;;5016796;28;20161;-84
2021/05/17 03:31:38;;;;;;;5.80;1.63;;;12.00;92.80;;;;;;5016563;28;20033;-84
2021/05/17 03:37:28;;;;;;;3.10;1.90;;;11.90;92.50;;;;;;5016194;28;20088;-85
2021/05/17 03:43:16;;;;;;;2.40;1.60;;;11.70;92.40;;;;;;5016128;28;20029;-84
2021/05/17 03:49:05;;;;;;;7.65;2.17;;;11.70;92.80;;;;;;5016224;28;20121;-83
2021/05/17 03:54:53;;;;;;;12.52;6.35;;;11.80;92.90;;;;;;5015830;28;20072;-84
2021/05/17 04:00:41;;;;;;;4.40;1.75;;;11.90;93.00;;;;;;5016039;28;20072;-83
2021/05/17 04:18:07;;;;;;;2.30;1.50;;;12.10;93.10;;;;;;5015448;28;19959;-82
2021/05/17 04:27:48;;;;;;;2.90;1.65;;;12.30;93.10;;;;;;5015572;28;20128;-85
2021/05/17 04:33:37;;;;;;;3.25;1.40;;;12.40;93.20;;;;;;5015342;28;20104;-85
2021/05/17 04:39:27;;;;;;;7.72;3.83;;;12.40;93.00;;;;;;5020100;28;20053;-84
2021/05/17 04:45:17;;;;;;;7.07;1.98;;;12.50;93.00;;;;;;5014982;28;20041;-84
2021/05/17 04:51:05;;;;;;;4.95;1.90;;;12.50;92.80;;;;;;5015178;28;20076;-84
2021/05/17 04:56:55;;;;;;;5.35;1.80;;;12.50;93.10;;;;;;5014882;28;20072;-83
2021/05/17 05:02:43;;;;;;;6.03;2.00;;;12.60;92.90;;;;;;5014918;28;20092;-84
2021/05/17 05:08:32;;;;;;;5.65;1.90;;;12.60;93.00;;;;;;5014640;28;20126;-84
2021/05/17 05:14:20;;;;;;;3.00;1.27;;;12.70;93.20;;;;;;5014756;28;20045;-84
2021/05/17 05:20:09;;;;;;;2.90;1.30;;;12.70;93.20;;;;;;5014530;28;20521;-86
2021/05/17 05:35:59;;;;;;;1.17;1.05;;;12.70;93.00;;;;;;5014458;28;20044;-87
2021/05/17 05:41:47;;;;;;;2.55;1.38;;;12.80;93.20;;;;;;5015140;28;20064;-88
2021/05/17 05:47:36;;;;;;;3.92;1.25;;;12.90;93.00;;;;;;5014179;28;20041;-84
2021/05/17 05:53:25;;;;;;;1.65;0.90;;;13.10;93.20;;;;;;5014280;28;20037;-83
2021/05/17 05:59:13;;;;;;;7.45;2.88;;;13.40;93.40;;;;;;5014216;28;20049;-84
2021/05/17 06:05:00;;;;;;;3.70;1.73;;;13.60;93.30;;;;;;5014369;28;20025;-84
2021/05/17 06:10:49;;;;;;;4.30;1.70;;;13.60;92.70;;;;;;5014423;28;20044;-84
2021/05/17 06:16:38;;;;;;;6.72;1.75;;;13.70;93.10;;;;;;5014219;28;20041;-86
2021/05/17 06:22:29;;;;;;;4.20;1.77;;;13.80;93.00;;;;;;5017564;28;20076;-85
2021/05/17 06:32:18;;;;;;;1.85;1.15;;;13.60;93.00;;;;;;5018430;28;20080;-85
2021/05/17 06:38:06;;;;;;;1.83;1.10;;;13.90;93.40;;;;;;5017598;28;20044;-85
2021/05/17 06:43:55;;;;;;;4.00;1.50;;;14.40;92.90;;;;;;5017481;28;20040;-86
2021/05/17 06:49:44;;;;;;;3.08;1.60;;;14.40;92.70;;;;;;5017396;28;20045;-85
2021/05/17 06:56:01;;;;;;;2.97;1.67;;;14.60;93.20;;;;;;5017644;28;20052;-84
2021/05/17 07:01:45;;;;;;;3.38;1.70;;;14.80;92.70;;;;;;5017782;28;20096;-84
2021/05/17 07:13:28;;;;;;;1.73;1.35;;;15.20;93.00;;;;;;5017180;28;20092;-85
2021/05/17 07:19:16;;;;;;;1.23;1.13;;;15.50;92.90;;;;;;5020653;28;20053;-86
2021/05/17 07:25:05;;;;;;;1.67;1.20;;;15.60;92.30;;;;;;5016705;28;20092;-85
2021/05/17 07:34:55;;;;;;;0.90;0.90;;;14.90;90.80;;;;;;5016413;28;20053;-85
2021/05/17 07:40:43;;;;;;;2.45;0.93;;;14.30;91.30;;;;;;5016193;28;20552;-85
2021/05/17 07:46:37;;;;;;;3.42;1.00;;;14.30;92.40;;;;;;5016464;28;20044;-87
2021/05/17 07:52:25;;;;;;;3.30;1.35;;;14.60;92.70;;;;;;5022408;28;20152;-84
2021/05/17 07:58:13;;;;;;;0.60;0.60;;;15.10;92.60;;;;;;5016298;28;20072;-83
2021/05/17 08:04:02;;;;;;;2.63;1.42;;;15.20;92.30;;;;;;5019942;28;20108;-84
2021/05/17 08:09:52;;;;;;;2.50;1.30;;;15.50;93.30;;;;;;5022225;28;20497;-85
2021/05/17 08:15:42;;;;;;;1.70;1.10;;;15.90;93.20;;;;;;5021859;28;20044;-85
2021/05/17 08:21:31;;;;;;;2.35;1.50;;;16.00;91.70;;;;;;5022488;28;20072;-84
2021/05/17 08:27:20;;;;;;;1.30;1.20;;;15.90;91.70;;;;;;5021343;28;20032;-84
2021/05/17 08:37:03;;;;;;;1.80;1.00;;;15.40;91.20;;;;;;5021359;28;20537;-85
2021/05/17 08:42:57;;;;;;;0.85;0.82;;;15.70;92.50;;;;;;5021970;28;20092;-84
2021/05/17 08:48:49;;;;;;;4.00;1.58;;;15.80;91.50;;;;;;5017385;28;20083;-83
2021/05/17 08:54:37;;;;;;;2.22;1.40;;;15.50;91.00;;;;;;5022067;28;20037;-84
2021/05/17 09:00:26;;;;;;;2.65;1.13;;;15.50;92.10;;;;;;5021787;28;20052;-85
2021/05/17 09:06:22;;;;;;;3.88;1.63;;;15.90;91.70;;;;;;5022277;28;20025;-84
2021/05/17 09:12:11;;;;;;;4.03;1.23;;;15.90;91.50;;;;;;5021115;28;20104;-84
2021/05/17 09:18:13;;;;;;;0.70;0.70;;;15.90;91.70;;;;;;5022308;28;20029;-84
2021/05/17 09:24:01;;;;;;;2.55;1.40;;;15.80;90.00;;;;;;5020685;28;20045;-83
2021/05/17 09:30:00;;;;;;;2.58;1.27;;;15.30;90.00;;;;;;5022208;28;20024;-83
2021/05/17 09:39:52;;;;;;;6.07;1.83;;;15.10;91.80;;;;;;5020770;28;20141;-85
2021/05/17 09:45:44;;;;;;;1.60;1.30;;;15.50;91.50;;;;;;5020914;28;20080;-86
2021/05/17 09:51:36;;;;;;;2.65;1.10;;;16.10;92.60;;;;;;5019144;28;20048;-83
2021/05/17 09:57:27;;;;;;;3.78;1.20;;;16.90;92.60;;;;;;5021182;28;20041;-86
2021/05/17 10:03:16;;;;;;;1.40;1.13;;;17.10;92.20;;;;;;5024687;28;20029;-86
2021/05/17 10:09:05;;;;;;;2.72;1.15;;;17.30;90.80;;;;;;5018136;28;20048;-84
2021/05/17 10:14:54;;;;;;;2.20;0.93;;;17.40;90.70;;;;;;5020484;28;20037;-82
2021/05/17 10:20:43;;;;;;;1.77;0.90;;;17.00;88.80;;;;;;5017340;28;20049;-83
2021/05/17 10:26:35;;;;;;;0.75;0.70;;;17.00;91.40;;;;;;5018355;28;20436;-83
2021/05/17 10:32:52;;;;;;;4.07;1.52;;;17.60;91.70;;;;;;5018890;28;20033;-83
2021/05/17 10:48:13;;;;;;;2.55;1.25;;;18.30;90.40;;;;;;5018282;28;20061;-84
2021/05/17 10:54:02;;;;;;;2.92;1.38;;;18.80;91.70;;;;;;5017993;28;20048;-87
2021/05/17 11:06:04;;;;;;;1.38;1.13;;;18.60;88.40;;;;;;5018338;28;20061;-83
2021/05/17 11:11:52;;;;;;;1.25;1.15;;;18.90;92.00;;;;;;5021831;28;20043;-84
2021/05/17 11:18:00;;;;;;;1.52;1.00;;;19.70;91.60;;;;;;5020049;28;20121;-82
2021/05/17 11:23:32;;;;;;;1.80;1.20;;;20.30;90.70;;;;;;5020264;28;19965;-86
2021/05/17 11:29:36;;;;;;;3.75;1.23;;;21.10;92.20;;;;;;5019550;28;20045;-82
2021/05/17 11:35:23;;;;;;;1.80;0.90;;;21.20;87.60;;;;;;5021738;28;20037;-83
2021/05/17 11:45:23;;;;;;;2.03;0.82;;;20.40;86.00;;;;;;5021022;28;20186;-83
2021/05/17 11:51:13;;;;;;;1.48;1.00;;;19.10;84.60;;;;;;5019382;28;20084;-83
2021/05/17 11:57:02;;;;;;;0.68;0.68;;;18.30;84.00;;;;;;5021818;28;20060;-85
2021/05/17 12:02:55;;;;;;;0.93;0.60;;;17.70;83.50;;;;;;5022029;28;20064;-82
2021/05/17 12:08:43;;;;;;;1.20;0.63;;;16.90;85.20;;;;;;5019010;28;20381;-82
2021/05/17 12:14:34;;;;;;;3.83;1.30;;;17.20;88.60;;;;;;5019588;28;20083;-84
2021/05/17 12:20:22;;;;;;;2.65;1.67;;;19.90;95.40;;;;;;5018133;28;20084;-84
2021/05/17 12:26:11;;;;;;;1.55;0.85;;;24.10;94.50;;;;;;5018725;28;20089;-83
2021/05/17 12:32:10;;;;;;;5.68;1.13;;;23.80;88.50;;;;;;5019471;28;20076;-83
2021/05/17 12:38:13;;;;;;;0.75;0.75;;;24.20;87.80;;;;;;5019187;28;20092;-85
2021/05/17 12:48:18;;;;;;;2.40;1.10;;;23.40;80.10;;;;;;5025000;28;20092;-86
2021/05/17 12:54:16;;;;;;;0.77;0.77;;;24.20;87.00;;;;;;5021375;28;20501;-85
2021/05/17 13:00:11;;;;;;;1.63;0.75;;;24.70;84.70;;;;;;5020966;28;20069;-85
2021/05/17 13:06:08;;;;;;;1.40;0.80;;;26.10;90.60;;;;;;5018429;28;20045;-85
2021/05/17 13:11:57;;;;;;;0.70;0.70;;;26.60;80.90;;;;;;5019934;28;20544;-84
2021/05/17 13:18:06;;;;;;;0.68;0.50;;;25.60;82.40;;;;;;5018097;28;20108;-85
2021/05/17 13:25:16;;;;;;;0.52;0.50;;;25.00;79.00;;;;;;5015962;28;20072;-82
2021/05/17 13:30:34;;;;;;;1.05;0.65;;;23.80;78.30;;;;;;5017978;28;20087;-84
2021/05/17 13:36:24;;;;;;;0.40;0.40;;;22.10;75.00;;;;;;5018560;28;20113;-84
2021/05/17 13:42:12;;;;;;;0.63;0.52;;;21.10;79.00;;;;;;5017400;28;20505;-83
2021/05/17 13:48:01;;;;;;;2.05;0.82;;;20.50;80.50;;;;;;5018147;28;20390;-84
2021/05/17 13:53:52;;;;;;;0.70;0.70;;;21.40;85.70;;;;;;5019375;28;20057;-83
2021/05/17 13:59:41;;;;;;;1.20;1.00;;;23.10;87.40;;;;;;5018218;28;20045;-84
2021/05/17 14:05:31;;;;;;;1.50;1.40;;;25.30;90.60;;;;;;5019148;28;20036;-84
2021/05/17 14:11:19;;;;;;;1.20;0.95;;;28.50;86.60;;;;;;5020321;28;20028;-85
2021/05/17 14:17:09;;;;;;;0.82;0.80;;;28.50;77.20;;;;;;5018129;28;20061;-84
2021/05/17 14:22:58;;;;;;;1.00;1.00;;;27.80;85.20;;;;;;5017009;28;20037;-83
2021/05/17 14:28:47;;;;;;;2.05;1.30;;;29.10;84.10;;;;;;5018928;28;20028;-84
2021/05/17 14:34:36;;;;;;;1.05;0.60;;;29.50;73.80;;;;;;5018056;28;20037;-83
2021/05/17 14:40:26;;;;;;;2.40;0.80;;;26.30;71.50;;;;;;5020518;28;20104;-84
2021/05/17 14:50:16;;;;;;;3.85;1.30;;;25.20;79.60;;;;;;5023093;28;20061;-84
2021/05/17 14:56:06;;;;;;;1.33;1.30;;;27.00;86.30;;;;;;5022638;28;20048;-84
2021/05/17 15:01:54;;;;;;;1.17;0.70;;;31.00;86.00;;;;;;5022485;28;20056;-84
2021/05/17 15:07:44;;;;;;;1.20;0.82;;;28.80;71.70;;;;;;5022755;28;20125;-83
2021/05/17 15:13:32;;;;;;;0.50;0.50;;;26.80;70.80;;;;;;5022268;28;20056;-84
2021/05/17 15:19:21;;;;;;;2.45;0.95;;;24.40;71.80;;;;;;5024217;28;20133;-84
2021/05/17 15:25:15;;;;;;;2.15;1.60;;;24.20;73.60;;;;;;5022340;28;20033;-85
2021/05/17 15:31:04;;;;;;;2.05;0.98;;;29.40;90.60;;;;;;5022436;28;20091;-85
2021/05/17 15:36:53;;;;;;;0.60;0.60;;;30.70;72.10;;;;;;5024709;28;20040;-84
2021/05/17 15:42:42;;;;;;;3.42;1.10;;;28.10;71.20;;;;;;5022288;28;20048;-84
2021/05/17 15:52:31;;;;;;;3.75;1.00;;;29.20;76.10;;;;;;5024622;28;20112;-85
2021/05/17 15:58:20;;;;;;;1.50;0.75;;;26.70;63.00;;;;;;5024664;28;20061;-84
2021/05/17 16:04:09;;;;;;;1.23;0.60;;;23.70;68.90;;;;;;5023984;28;20040;-85
2021/05/17 16:09:58;;;;;;;1.25;0.70;;;22.20;70.20;;;;;;5023742;28;20061;-84
2021/05/17 16:21:53;;;;;;;3.22;0.80;;;19.60;71.20;;;;;;5023148;28;20044;-84
2021/05/17 16:27:42;;;;;;;2.20;1.20;;;20.00;83.00;;;;;;5021681;28;20040;-85
2021/05/17 16:33:31;;;;;;;1.38;1.02;;;22.50;88.10;;;;;;5025894;28;20489;-84
2021/05/17 16:39:20;;;;;;;1.55;0.60;;;25.10;81.40;;;;;;5022502;28;20044;-85
2021/05/17 16:45:09;;;;;;;0.57;0.57;;;24.10;69.00;;;;;;5024217;28;20128;-84
2021/05/17 16:54:58;;;;;;;2.72;0.80;;;24.50;77.10;;;;;;5015151;28;20061;-85
2021/05/17 17:00:47;;;;;;;1.00;1.00;;;23.50;70.70;;;;;;5014597;28;20041;-85
2021/05/17 17:06:36;;;;;;;1.17;0.73;;;22.50;73.50;;;;;;5014026;28;20037;-85
2021/05/17 17:12:26;;;;;;;1.00;0.80;;;21.60;70.30;;;;;;5014455;28;20106;-85
2021/05/17 17:18:14;;;;;;;2.08;0.90;;;20.60;72.40;;;;;;5014595;28;20072;-85
2021/05/17 17:24:04;;;;;;;2.33;0.82;;;19.80;72.70;;;;;;5014765;28;20168;-83
2021/05/17 17:29:58;;;;;;;2.17;0.80;;;18.80;73.40;;;;;;5014924;28;20098;-88
2021/05/17 17:35:46;;;;;;;2.28;0.98;;;18.10;74.30;;;;;;5014178;28;20398;-84
2021/05/17 17:41:36;;;;;;;0.65;0.65;;;17.60;75.40;;;;;;5014378;28;20085;-84
2021/05/17 17:47:25;;;;;;;13.13;6.68;;;17.20;75.00;;;;;;5013990;28;20057;-84
2021/05/17 17:57:14;;;;;;;1.75;0.88;;;16.80;78.20;;;;;;5014139;28;20104;-85
2021/05/17 18:03:02;;;;;;;1.65;0.85;;;16.50;77.80;;;;;;5013952;28;20060;-85
2021/05/17 18:08:51;;;;;;;0.93;0.93;;;16.40;78.50;;;;;;5015308;28;20074;-85
2021/05/17 18:14:40;;;;;;;1.08;0.90;;;16.20;78.70;;;;;;5015362;28;20500;-84
2021/05/17 18:20:28;;;;;;;1.13;1.00;;;16.00;79.10;;;;;;5018465;28;20033;-84
2021/05/17 18:26:16;;;;;;;1.55;0.98;;;15.70;79.30;;;;;;5017574;28;20133;-84
2021/05/17 18:32:17;;;;;;;3.13;0.98;;;15.50;80.00;;;;;;5017696;28;20080;-84
2021/05/17 18:38:06;;;;;;;0.82;0.80;;;15.30;79.20;;;;;;5017328;28;20072;-84
2021/05/17 18:50:26;;;;;;;2.35;1.30;;;14.80;80.30;;;;;;5017653;28;20079;-85
2021/05/17 19:00:28;;;;;;;1.75;1.15;;;14.40;80.70;;;;;;5017227;28;20057;-88
2021/05/17 19:06:16;;;;;;;3.05;1.40;;;14.30;81.90;;;;;;5017067;28;20033;-87
2021/05/17 19:12:07;;;;;;;3.65;1.30;;;14.40;82.20;;;;;;5016706;28;20456;-88
2021/05/17 19:17:56;;;;;;;1.92;1.10;;;14.40;82.60;;;;;;5016384;28;20033;-87
2021/05/17 19:23:46;;;;;;;2.78;1.45;;;14.30;82.50;;;;;;5016196;28;20032;-87
2021/05/17 19:29:34;;;;;;;4.93;1.60;;;14.20;82.70;;;;;;5014974;28;20029;-87
2021/05/17 19:35:23;;;;;;;0.95;0.85;;;14.20;83.30;;;;;;5016355;28;20413;-87
2021/05/17 19:41:30;;;;;;;3.90;1.67;;;14.00;82.60;;;;;;5016050;28;20134;-87
2021/05/17 19:47:24;;;;;;;2.33;1.20;;;13.90;82.70;;;;;;5017086;28;20041;-86
2021/05/17 19:53:27;;;;;;;2.65;1.38;;;13.80;83.00;;;;;;5017031;28;20037;-87
2021/05/17 20:03:16;;;;;;;1.65;1.30;;;13.80;84.10;;;;;;5016270;28;20165;-84
2021/05/17 20:09:08;;;;;;;2.15;1.23;;;13.70;84.00;;;;;;5015646;28;20090;-85
2021/05/17 20:14:58;;;;;;;1.83;1.20;;;13.60;83.90;;;;;;5015271;28;20406;-83
2021/05/17 20:20:47;;;;;;;2.65;1.40;;;13.50;84.00;;;;;;5016235;28;20045;-84
2021/05/17 20:26:35;;;;;;;5.13;1.75;;;13.50;84.10;;;;;;5015764;28;20028;-84
2021/05/17 20:32:24;;;;;;;3.25;1.50;;;13.40;84.50;;;;;;5015279;28;20040;-84
2021/05/17 20:38:20;;;;;;;2.67;1.20;;;13.40;84.20;;;;;;5015259;28;20024;-82
2021/05/17 20:44:12;;;;;;;1.85;1.02;;;13.20;84.30;;;;;;5015475;28;20072;-83
2021/05/17 20:50:00;;;;;;;1.80;1.25;;;13.00;84.40;;;;;;5014936;28;20033;-83
2021/05/17 20:55:48;;;;;;;2.22;1.30;;;12.90;84.60;;;;;;5015084;28;20405;-83
2021/05/17 21:05:39;;;;;;;6.22;1.98;;;12.90;85.60;;;;;;5015031;28;20068;-83
2021/05/17 21:11:29;;;;;;;3.95;1.73;;;13.00;86.10;;;;;;5014763;28;20100;-83
2021/05/17 21:17:19;;;;;;;2.60;1.50;;;13.10;86.10;;;;;;5014385;28;20080;-83
2021/05/17 21:23:07;;;;;;;2.00;1.30;;;13.10;86.10;;;;;;5014381;28;20107;-82
2021/05/17 21:28:56;;;;;;;2.85;1.35;;;13.10;86.20;;;;;;5014457;28;20044;-83
2021/05/17 21:34:45;;;;;;;2.50;1.40;;;13.20;86.40;;;;;;5014446;28;20029;-83
2021/05/17 21:40:35;;;;;;;3.05;1.60;;;13.10;86.20;;;;;;5014028;28;20080;-83
2021/05/17 21:46:24;;;;;;;2.92;1.60;;;13.00;86.00;;;;;;5013943;28;20073;-84
2021/05/17 21:52:12;;;;;;;4.32;1.70;;;13.00;86.80;;;;;;5013611;28;20032;-84
2021/05/17 21:58:01;;;;;;;4.70;1.67;;;12.90;86.30;;;;;;5013900;28;20156;-84
2021/05/17 22:13:51;;;;;;;3.40;1.50;;;12.70;86.30;;;;;;5014002;28;20025;-83
2021/05/17 22:19:39;;;;;;;7.15;2.25;;;12.60;86.80;;;;;;5013622;28;20497;-82
2021/05/17 22:25:28;;;;;;;1.67;1.25;;;12.60;86.90;;;;;;5013871;28;20068;-82
2021/05/17 22:31:18;;;;;;;1.38;1.25;;;12.60;86.60;;;;;;5013848;28;20037;-82
2021/05/17 22:37:10;;;;;;;3.13;1.50;;;12.40;86.60;;;;;;5013577;28;20037;-81
2021/05/17 22:42:58;;;;;;;3.17;1.73;;;12.40;86.70;;;;;;5013533;28;20045;-81
2021/05/17 22:48:53;;;;;;;1.58;1.08;;;12.30;86.80;;;;;;5013497;28;20533;-81
2021/05/17 22:54:41;;;;;;;6.57;1.90;;;12.20;86.80;;;;;;5013742;28;20045;-82
2021/05/17 23:00:33;;;;;;;6.03;1.90;;;12.20;86.90;;;;;;5013303;28;20128;-82
2021/05/17 23:10:22;;;;;;;3.17;1.70;;;12.20;87.80;;;;;;5016955;28;20569;-83
2021/05/17 23:16:11;;;;;;;3.72;1.55;;;12.30;88.00;;;;;;5016805;28;20040;-83
2021/05/17 23:22:08;;;;;;;5.00;2.00;;;12.40;87.90;;;;;;5016634;28;20069;-84
2021/05/17 23:28:05;;;;;;;3.00;1.20;;;12.50;88.10;;;;;;5016797;28;20041;-84
2021/05/17 23:33:54;;;;;;;6.05;1.88;;;12.50;88.00;;;;;;5016395;28;20497;-84
2021/05/17 23:39:43;;;;;;;3.17;1.40;;;12.50;88.20;;;;;;5016443;28;20056;-84
2021/05/17 23:45:32;;;;;;;3.15;1.60;;;12.50;87.40;;;;;;5016462;28;20477;-84
2021/05/17 23:51:21;;;;;;;1.77;1.33;;;12.30;87.30;;;;;;5016110;28;20083;-83
2021/05/17 23:57:09;;;;;;;7.13;1.50;;;12.20;87.60;;;;;;5016216;28;20060;-83
